createdAt,value
2018-07-09T00:01:34.469Z,4.10
2018-07-09T00:04:01.644Z,4.10
2018-07-09T00:06:28.846Z,4.50
2018-07-09T00:08:55.941Z,4.10
2018-07-09T00:11:23.091Z,4.13
2018-07-09T00:13:50.204Z,3.97
2018-07-09T00:16:17.337Z,4.27
2018-07-09T00:18:44.501Z,4.27
2018-07-09T00:21:11.681Z,4.30
2018-07-09T00:23:38.807Z,4.00
2018-07-09T00:26:05.968Z,4.10
2018-07-09T00:28:33.081Z,3.90
2018-07-09T00:31:00.208Z,4.07
2018-07-09T00:33:27.346Z,4.27
2018-07-09T00:35:54.453Z,3.87
2018-07-09T00:38:21.559Z,4.40
2018-07-09T00:40:48.715Z,3.83
2018-07-09T00:43:15.998Z,3.77
2018-07-09T00:45:43.195Z,4.30
2018-07-09T00:48:10.620Z,4.23
2018-07-09T00:50:37.792Z,4.83
2018-07-09T00:53:04.960Z,4.37
2018-07-09T00:55:32.395Z,4.40
2018-07-09T00:57:59.553Z,4.73
2018-07-09T01:00:26.644Z,4.67
2018-07-09T01:02:53.840Z,4.20
2018-07-09T01:05:21.038Z,4.27
2018-07-09T01:07:48.215Z,4.85
2018-07-09T01:10:15.935Z,4.47
2018-07-09T01:12:43.138Z,4.50
2018-07-09T01:15:10.268Z,4.47
2018-07-09T01:17:37.440Z,4.63
2018-07-09T01:20:04.633Z,4.50
2018-07-09T01:22:32.007Z,4.47
2018-07-09T01:24:59.144Z,4.47
2018-07-09T01:27:26.249Z,4.70
2018-07-09T01:29:53.786Z,5.13
2018-07-09T01:32:20.902Z,4.70
2018-07-09T01:34:48.047Z,4.70
2018-07-09T01:37:15.232Z,4.80
2018-07-09T01:39:42.369Z,4.67
2018-07-09T01:42:09.474Z,4.70
2018-07-09T01:44:36.618Z,4.43
2018-07-09T01:47:04.211Z,4.60
2018-07-09T01:49:31.411Z,4.80
2018-07-09T01:51:58.536Z,4.50
2018-07-09T01:54:25.724Z,4.87
2018-07-09T01:56:52.829Z,5.00
2018-07-09T01:59:19.932Z,4.50
2018-07-09T02:01:47.123Z,4.63
2018-07-09T02:04:14.308Z,5.20
2018-07-09T02:06:41.800Z,5.03
2018-07-09T02:09:09.180Z,4.63
2018-07-09T02:11:36.629Z,4.77
2018-07-09T02:14:03.791Z,5.17
2018-07-09T02:16:30.936Z,5.37
2018-07-09T02:19:02.206Z,6.00
2018-07-09T02:21:29.344Z,6.42
2018-07-09T02:23:56.524Z,5.03
2018-07-09T02:26:23.637Z,6.00
2018-07-09T02:28:50.763Z,5.57
2018-07-09T02:31:17.926Z,5.73
2018-07-09T02:33:45.089Z,5.60
2018-07-09T02:36:12.203Z,5.50
2018-07-09T02:38:39.344Z,5.53
2018-07-09T02:41:06.500Z,5.33
2018-07-09T02:43:33.585Z,5.20
2018-07-09T02:46:00.764Z,5.43
2018-07-09T02:48:27.848Z,6.00
2018-07-09T02:50:55.075Z,6.20
2018-07-09T02:53:22.265Z,5.57
2018-07-09T02:55:49.363Z,5.70
2018-07-09T02:58:16.475Z,6.37
2018-07-09T03:00:43.794Z,6.30
2018-07-09T03:03:10.857Z,6.00
2018-07-09T03:05:38.078Z,6.07
2018-07-09T03:08:05.434Z,6.30
2018-07-09T03:10:32.577Z,5.80
2018-07-09T03:12:59.760Z,7.00
2018-07-09T03:15:26.901Z,6.10
2018-07-09T03:17:53.991Z,6.87
2018-07-09T03:20:21.075Z,6.70
2018-07-09T03:22:48.272Z,5.97
2018-07-09T03:25:15.390Z,6.17
2018-07-09T03:27:42.540Z,6.57
2018-07-09T03:30:09.825Z,6.40
2018-07-09T03:32:36.923Z,6.13
2018-07-09T03:35:04.085Z,7.27
2018-07-09T03:37:31.272Z,6.87
2018-07-09T03:39:58.363Z,6.57
2018-07-09T03:42:25.481Z,6.53
2018-07-09T03:44:52.628Z,6.10
2018-07-09T03:47:19.754Z,5.67
2018-07-09T03:49:46.855Z,6.47
2018-07-09T03:52:13.989Z,6.93
2018-07-09T03:54:41.242Z,6.40
2018-07-09T03:57:08.817Z,5.73
2018-07-09T03:59:36.434Z,6.50
2018-07-09T04:02:03.895Z,6.73
2018-07-09T04:04:31.882Z,6.67
2018-07-09T04:06:59.119Z,5.67
2018-07-09T04:09:26.709Z,6.20
2018-07-09T04:11:53.816Z,6.43
2018-07-09T04:14:21.011Z,6.47
2018-07-09T04:16:48.107Z,7.00
2018-07-09T04:19:15.212Z,6.50
2018-07-09T04:21:42.344Z,6.47
2018-07-09T04:24:09.466Z,6.40
2018-07-09T04:26:36.557Z,6.40
2018-07-09T04:29:03.711Z,6.27
2018-07-09T04:31:30.834Z,6.80
2018-07-09T04:33:57.937Z,6.57
2018-07-09T04:36:25.149Z,6.77
2018-07-09T04:38:52.353Z,6.50
2018-07-09T04:41:19.454Z,6.60
2018-07-09T04:43:46.627Z,5.87
2018-07-09T04:46:13.812Z,6.30
2018-07-09T04:48:40.916Z,5.80
2018-07-09T04:51:08.102Z,5.97
2018-07-09T04:53:35.228Z,5.83
2018-07-09T04:56:02.303Z,5.50
2018-07-09T04:58:29.544Z,4.93
2018-07-09T05:00:56.665Z,5.03
2018-07-09T05:03:23.796Z,4.90
2018-07-09T05:05:51.073Z,5.47
2018-07-09T05:08:18.254Z,4.90
2018-07-09T05:10:45.578Z,5.07
2018-07-09T05:13:13.325Z,4.93
2018-07-09T05:15:40.471Z,4.80
2018-07-09T05:18:07.632Z,4.67
2018-07-09T05:20:34.903Z,4.80
2018-07-09T05:23:02.705Z,4.73
2018-07-09T05:25:29.800Z,4.30
2018-07-09T05:27:57.492Z,4.80
2018-07-09T05:30:24.671Z,4.20
2018-07-09T05:32:51.874Z,4.47
2018-07-09T05:35:19.240Z,4.17
2018-07-09T05:37:46.876Z,3.90
2018-07-09T05:40:14.899Z,4.03
2018-07-09T05:42:42.325Z,4.10
2018-07-09T05:45:09.515Z,4.67
2018-07-09T05:47:36.663Z,4.50
2018-07-09T05:50:04.224Z,4.40
2018-07-09T05:52:31.460Z,4.17
2018-07-09T05:54:58.834Z,4.10
2018-07-09T05:57:26.136Z,4.10
2018-07-09T05:59:53.483Z,3.87
2018-07-09T06:02:20.764Z,4.53
2018-07-09T06:04:48.155Z,4.13
2018-07-09T06:07:15.771Z,4.27
2018-07-09T06:09:43.892Z,4.17
2018-07-09T06:12:11.124Z,4.63
2018-07-09T06:14:38.249Z,4.80
2018-07-09T06:17:06.459Z,4.60
2018-07-09T06:19:34.014Z,4.60
2018-07-09T06:22:01.156Z,4.83
2018-07-09T06:24:28.312Z,4.87
2018-07-09T06:26:56.016Z,5.00
2018-07-09T06:29:23.207Z,4.83
2018-07-09T06:31:50.730Z,4.53
2018-07-09T06:34:18.325Z,4.57
2018-07-09T06:36:46.172Z,5.10
2018-07-09T06:39:13.833Z,4.40
2018-07-09T06:41:41.056Z,4.40
2018-07-09T06:44:08.168Z,3.90
2018-07-09T06:46:35.399Z,3.70
2018-07-09T06:49:02.572Z,4.27
2018-07-09T06:51:29.736Z,4.20
2018-07-09T06:53:57.189Z,4.50
2018-07-09T06:56:24.416Z,3.90
2018-07-09T06:58:51.825Z,3.77
2018-07-09T07:01:19.207Z,4.10
2018-07-09T07:03:46.508Z,4.03
2018-07-09T07:06:14.816Z,3.92
2018-07-09T07:08:43.154Z,4.00
2018-07-09T07:11:10.470Z,3.87
2018-07-09T07:13:37.645Z,3.73
2018-07-09T07:16:04.872Z,3.60
2018-07-09T07:18:32.595Z,3.47
2018-07-09T07:20:59.802Z,4.10
2018-07-09T07:23:26.854Z,4.37
2018-07-09T07:25:54.001Z,3.77
2018-07-09T07:28:21.531Z,3.87
2018-07-09T07:30:48.804Z,4.10
2018-07-09T07:33:16.372Z,3.90
2018-07-09T07:35:44.895Z,4.20
2018-07-09T07:38:13.183Z,3.93
2018-07-09T07:40:40.435Z,3.40
2018-07-09T07:43:07.539Z,3.83
2018-07-09T07:45:34.873Z,3.87
2018-07-09T07:48:02.209Z,3.73
2018-07-09T07:50:29.416Z,3.80
2018-07-09T07:52:56.449Z,3.90
2018-07-09T07:55:23.699Z,3.80
2018-07-09T07:57:51.470Z,3.57
2018-07-09T08:00:18.862Z,4.10
2018-07-09T08:02:46.793Z,4.13
2018-07-09T08:05:14.576Z,4.30
2018-07-09T08:07:45.625Z,4.10
2018-07-09T08:10:14.770Z,4.10
2018-07-09T08:13:27.170Z,3.80
2018-07-09T08:15:09.468Z,4.60
2018-07-09T08:17:36.776Z,4.80
2018-07-09T08:20:04.131Z,3.80
2018-07-09T08:22:31.250Z,4.17
2018-07-09T08:24:58.589Z,3.70
2018-07-09T08:27:25.675Z,3.67
2018-07-09T08:29:52.796Z,3.60
2018-07-09T08:32:20.065Z,3.30
2018-07-09T08:34:47.281Z,3.53
2018-07-09T08:37:15.045Z,3.50
2018-07-09T08:39:42.267Z,3.43
2018-07-09T08:42:10.212Z,3.53
2018-07-09T08:44:39.172Z,3.80
2018-07-09T08:47:06.403Z,3.60
2018-07-09T08:49:33.522Z,3.70
2018-07-09T08:52:00.716Z,3.20
2018-07-09T08:54:28.005Z,3.10
2018-07-09T08:56:55.331Z,2.83
2018-07-09T08:59:22.435Z,3.20
2018-07-09T09:01:49.733Z,2.70
2018-07-09T09:04:17.014Z,2.63
2018-07-09T09:06:44.844Z,2.63
2018-07-09T09:09:12.248Z,2.40
2018-07-09T09:11:40.242Z,2.27
2018-07-09T09:14:07.350Z,2.43
2018-07-09T09:16:34.567Z,2.63
2018-07-09T09:19:01.699Z,2.90
2018-07-09T09:21:29.915Z,2.80
2018-07-09T09:23:57.909Z,2.73
2018-07-09T09:26:25.027Z,2.50
2018-07-09T09:28:52.423Z,2.77
2018-07-09T09:31:19.857Z,2.67
2018-07-09T09:33:47.745Z,2.37
2018-07-09T09:36:15.056Z,3.00
2018-07-09T09:38:42.383Z,2.70
2018-07-09T09:41:09.545Z,2.93
2018-07-09T09:43:36.624Z,2.70
2018-07-09T09:46:03.808Z,2.50
2018-07-09T09:48:30.958Z,2.53
2018-07-09T09:50:58.059Z,3.07
2018-07-09T09:53:25.192Z,2.63
2018-07-09T09:55:52.327Z,2.33
2018-07-09T09:58:19.610Z,2.27
2018-07-09T10:00:48.965Z,2.87
2018-07-09T10:03:16.215Z,2.17
2018-07-09T10:05:43.857Z,2.40
2018-07-09T10:08:11.098Z,2.30
2018-07-09T10:10:38.236Z,2.10
2018-07-09T10:13:05.517Z,2.03
2018-07-09T10:15:32.673Z,2.10
2018-07-09T10:18:02.487Z,2.30
2018-07-09T10:20:30.034Z,2.23
2018-07-09T10:22:57.382Z,2.20
2018-07-09T10:25:24.728Z,1.97
2018-07-09T10:27:52.272Z,2.50
2018-07-09T10:30:21.195Z,2.43
2018-07-09T10:32:48.424Z,2.40
2018-07-09T10:35:16.102Z,2.40
2018-07-09T10:37:43.641Z,2.20
2018-07-09T10:40:10.799Z,1.90
2018-07-09T10:42:37.967Z,1.80
2018-07-09T10:45:05.253Z,1.73
2018-07-09T10:47:32.367Z,2.10
2018-07-09T10:49:59.507Z,2.10
2018-07-09T10:52:26.667Z,1.80
2018-07-09T10:54:53.872Z,1.67
2018-07-09T10:57:21.328Z,1.80
2018-07-09T10:59:48.744Z,1.80
2018-07-09T11:02:16.155Z,1.90
2018-07-09T11:04:44.542Z,2.30
2018-07-09T11:07:12.004Z,2.10
2018-07-09T11:09:39.823Z,1.80
2018-07-09T11:12:06.892Z,1.80
2018-07-09T11:14:34.067Z,2.13
2018-07-09T11:17:01.178Z,2.10
2018-07-09T11:19:28.320Z,2.17
2018-07-09T11:21:55.491Z,2.07
2018-07-09T11:24:22.730Z,1.90
2018-07-09T11:26:50.067Z,2.07
2018-07-09T11:29:17.545Z,2.30
2018-07-09T11:31:44.876Z,2.30
2018-07-09T11:34:12.709Z,2.30
2018-07-09T11:36:39.990Z,2.47
2018-07-09T11:39:07.174Z,2.50
2018-07-09T11:41:34.292Z,2.23
2018-07-09T11:44:01.538Z,2.53
2018-07-09T11:46:28.654Z,2.03
2018-07-09T11:48:55.780Z,2.40
2018-07-09T11:51:22.998Z,1.90
2018-07-09T11:53:50.557Z,2.00
2018-07-09T11:56:17.898Z,2.17
2018-07-09T11:58:45.457Z,2.00
2018-07-09T12:01:12.881Z,2.17
2018-07-09T12:03:40.034Z,1.97
2018-07-09T12:06:07.245Z,2.20
2018-07-09T12:08:34.409Z,2.00
2018-07-09T12:11:01.535Z,2.20
2018-07-09T12:13:28.672Z,2.40
2018-07-09T12:15:56.805Z,2.40
2018-07-09T12:18:23.944Z,2.50
2018-07-09T12:20:51.376Z,2.30
2018-07-09T12:23:18.796Z,2.27
2018-07-09T12:25:46.258Z,2.53
2018-07-09T12:28:14.180Z,2.67
2018-07-09T12:30:41.936Z,2.53
2018-07-09T12:33:09.120Z,2.17
2018-07-09T12:35:36.349Z,2.27
2018-07-09T12:38:03.556Z,2.60
2018-07-09T12:40:30.701Z,2.50
2018-07-09T12:42:59.179Z,2.40
2018-07-09T12:45:26.652Z,2.60
2018-07-09T12:47:54.154Z,2.60
2018-07-09T12:50:21.512Z,2.20
2018-07-09T12:52:59.614Z,2.50
2018-07-09T12:55:26.824Z,2.70
2018-07-09T12:57:54.038Z,3.20
2018-07-09T13:00:21.462Z,2.43
2018-07-09T13:02:48.753Z,3.00
2018-07-09T13:05:16.172Z,3.63
2018-07-09T13:07:43.669Z,3.40
2018-07-09T13:10:10.827Z,3.90
2018-07-09T13:12:37.947Z,3.70
2018-07-09T13:15:05.297Z,4.03
2018-07-09T13:17:32.788Z,4.07
2018-07-09T13:20:00.558Z,4.50
2018-07-09T13:22:27.597Z,3.60
2018-07-09T13:24:54.776Z,4.10
2018-07-09T13:27:22.160Z,3.83
2018-07-09T13:29:50.484Z,4.50
2018-07-09T13:32:17.867Z,3.70
2018-07-09T13:34:45.376Z,4.00
2018-07-09T13:37:12.722Z,3.87
2018-07-09T13:39:39.936Z,4.00
2018-07-09T13:42:07.093Z,3.80
2018-07-09T13:44:34.251Z,3.77
2018-07-09T13:47:01.537Z,3.80
2018-07-09T13:49:28.970Z,3.20
2018-07-09T13:51:56.111Z,3.40
2018-07-09T13:54:23.320Z,3.43
2018-07-09T13:56:50.648Z,3.47
2018-07-09T13:59:18.066Z,3.47
2018-07-09T14:01:45.585Z,3.10
2018-07-09T14:04:14.116Z,3.20
2018-07-09T14:06:43.756Z,2.80
2018-07-09T14:09:11.153Z,2.60
2018-07-09T14:11:38.810Z,2.60
2018-07-09T14:14:06.799Z,2.67
2018-07-09T14:16:34.079Z,2.83
2018-07-09T14:19:11.496Z,2.60
2018-07-09T14:21:39.901Z,2.80
2018-07-09T14:24:07.557Z,2.83
2018-07-09T14:26:34.695Z,2.70
2018-07-09T14:29:02.104Z,2.63
2018-07-09T14:31:29.245Z,2.87
2018-07-09T14:33:56.363Z,2.50
2018-07-09T14:36:24.735Z,2.60
2018-07-09T14:38:52.236Z,2.40
2018-07-09T14:41:19.760Z,2.50
2018-07-09T14:43:47.636Z,2.30
2018-07-09T14:46:15.498Z,2.23
2018-07-09T14:48:43.274Z,2.20
2018-07-09T14:51:10.455Z,2.37
2018-07-09T14:53:38.487Z,2.00
2018-07-09T14:56:05.658Z,2.13
2018-07-09T14:58:32.916Z,2.37
2018-07-09T15:01:00.062Z,2.17
2018-07-09T15:03:27.253Z,2.30
2018-07-09T15:05:54.502Z,2.40
2018-07-09T15:08:21.837Z,2.40
2018-07-09T15:10:49.546Z,2.10
2018-07-09T15:13:17.923Z,2.20
2018-07-09T15:15:45.797Z,2.10
2018-07-09T15:18:13.022Z,2.00
2018-07-09T15:20:41.340Z,1.90
2018-07-09T15:23:08.429Z,2.10
2018-07-09T15:25:35.648Z,2.27
2018-07-09T15:28:02.796Z,2.23
2018-07-09T15:30:31.183Z,2.27
2018-07-09T15:32:58.387Z,2.50
2018-07-09T15:35:25.679Z,2.30
2018-07-09T15:37:53.114Z,2.20
2018-07-09T15:40:20.519Z,2.53
2018-07-09T15:42:50.108Z,2.40
2018-07-09T15:45:17.961Z,2.53
2018-07-09T15:47:46.625Z,2.20
2018-07-09T15:50:15.491Z,2.60
2018-07-09T15:52:47.406Z,2.20
2018-07-09T15:55:15.418Z,2.30
2018-07-09T15:57:42.777Z,2.53
2018-07-09T16:00:10.093Z,2.50
2018-07-09T16:02:37.292Z,2.60
2018-07-09T16:05:04.481Z,2.63
2018-07-09T16:07:31.620Z,2.33
2018-07-09T16:09:58.788Z,2.37
2018-07-09T16:12:25.995Z,2.70
2018-07-09T16:14:53.534Z,2.70
2018-07-09T16:17:21.152Z,2.60
2018-07-09T16:19:48.997Z,3.00
2018-07-09T16:22:16.809Z,2.73
2018-07-09T16:24:44.461Z,2.40
2018-07-09T16:27:11.648Z,2.90
2018-07-09T16:29:38.879Z,2.80
2018-07-09T16:32:06.421Z,2.70
2018-07-09T16:34:33.605Z,2.67
2018-07-09T16:37:00.744Z,2.80
2018-07-09T16:39:27.984Z,3.00
2018-07-09T16:41:55.276Z,2.87
2018-07-09T16:44:23.835Z,2.43
2018-07-09T16:46:51.278Z,2.73
2018-07-09T16:49:19.289Z,3.47
2018-07-09T16:51:47.097Z,2.93
2018-07-09T16:54:14.815Z,2.87
2018-07-09T16:56:42.038Z,2.93
2018-07-09T16:59:09.165Z,3.17
2018-07-09T17:01:36.363Z,2.83
2018-07-09T17:04:03.532Z,3.33
2018-07-09T17:06:30.649Z,3.20
2018-07-09T17:08:57.760Z,2.87
2018-07-09T17:11:25.299Z,3.05
2018-07-09T17:13:53.079Z,3.13
2018-07-09T17:16:20.428Z,2.90
2018-07-09T17:18:48.735Z,2.87
2018-07-09T17:21:16.154Z,2.80
2018-07-09T17:23:43.304Z,2.70
2018-07-09T17:26:10.511Z,2.83
2018-07-09T17:28:37.630Z,2.73
2018-07-09T17:31:04.733Z,2.70
2018-07-09T17:33:34.323Z,3.93
2018-07-09T17:36:01.452Z,2.43
2018-07-09T17:38:28.668Z,2.13
2018-07-09T17:40:55.837Z,2.10
2018-07-09T17:43:23.245Z,1.77
2018-07-09T17:45:50.584Z,1.67
2018-07-09T17:48:18.502Z,1.93
2018-07-09T17:50:46.031Z,2.17
2018-07-09T17:53:13.162Z,1.80
2018-07-09T17:55:40.363Z,1.90
2018-07-09T17:58:08.513Z,1.93
2018-07-09T18:00:35.681Z,2.20
2018-07-09T18:03:05.237Z,2.37
2018-07-09T18:05:32.349Z,1.80
2018-07-09T18:08:00.446Z,1.87
2018-07-09T18:10:27.702Z,2.00
2018-07-09T18:12:55.093Z,2.70
2018-07-09T18:15:22.388Z,2.57
2018-07-09T18:17:49.616Z,4.43
2018-07-09T18:20:17.883Z,2.50
2018-07-09T18:22:45.042Z,2.13
2018-07-09T18:25:12.183Z,2.47
2018-07-09T18:27:39.492Z,2.33
2018-07-09T18:30:06.648Z,2.20
2018-07-09T18:32:33.929Z,2.50
2018-07-09T18:35:01.433Z,1.90
2018-07-09T18:37:29.788Z,2.17
2018-07-09T18:39:57.148Z,1.93
2018-07-09T18:42:24.860Z,1.90
2018-07-09T18:44:52.916Z,2.17
2018-07-09T18:47:20.215Z,2.20
2018-07-09T18:49:47.337Z,2.03
2018-07-09T18:52:14.472Z,2.00
2018-07-09T18:54:41.643Z,1.97
2018-07-09T18:57:09.744Z,1.97
2018-07-09T18:59:36.861Z,2.07
2018-07-09T19:02:04.212Z,2.00
2018-07-09T19:04:31.364Z,1.90
2018-07-09T19:07:02.068Z,1.80
2018-07-09T19:09:31.743Z,1.87
2018-07-09T19:11:59.896Z,2.43
2018-07-09T19:14:45.198Z,1.87
2018-07-09T19:17:52.872Z,2.00
2018-07-09T19:20:31.566Z,2.10
2018-07-09T19:22:58.034Z,2.27
2018-07-09T19:25:24.558Z,2.20
2018-07-09T19:27:51.475Z,1.83
2018-07-09T19:30:17.784Z,1.73
2018-07-09T19:32:44.435Z,1.70
2018-07-09T19:35:10.913Z,2.10
2018-07-09T19:37:37.444Z,2.30
2018-07-09T19:40:03.288Z,2.20
2018-07-09T19:42:30.277Z,1.93
2018-07-09T19:44:56.873Z,1.83
2018-07-09T19:47:24.564Z,2.00
2018-07-09T19:49:51.393Z,2.10
2018-07-09T19:52:17.935Z,2.50
2018-07-09T19:54:44.278Z,2.17
2018-07-09T19:57:10.550Z,1.60
2018-07-09T19:59:36.871Z,2.00
2018-07-09T20:02:03.651Z,1.90
2018-07-09T20:04:29.904Z,2.30
2018-07-09T20:06:56.316Z,2.03
2018-07-09T20:09:28.693Z,1.83
2018-07-09T20:12:01.566Z,1.80
2018-07-09T20:14:33.666Z,2.03
2018-07-09T20:17:05.725Z,2.03
2018-07-09T20:19:32.116Z,1.90
2018-07-09T20:21:58.636Z,2.13
2018-07-09T20:24:25.711Z,2.30
2018-07-09T20:26:52.056Z,2.23
2018-07-09T20:29:18.643Z,2.37
2018-07-09T20:31:46.794Z,2.00
2018-07-09T20:34:13.763Z,1.97
2018-07-09T20:36:39.975Z,2.20
2018-07-09T20:39:06.963Z,2.43
2018-07-09T20:41:33.742Z,2.20
2018-07-09T20:44:00.542Z,1.87
2018-07-09T20:46:26.816Z,2.00
2018-07-09T20:48:53.127Z,1.80
2018-07-09T20:51:19.568Z,1.83
2018-07-09T20:53:46.199Z,2.33
2018-07-09T20:56:12.510Z,2.03
2018-07-09T20:58:38.880Z,2.07
2018-07-09T21:01:05.175Z,1.90
2018-07-09T21:03:31.320Z,2.07
2018-07-09T21:05:57.503Z,2.43
2018-07-09T21:08:23.748Z,2.13
2018-07-09T21:10:50.037Z,2.43
2018-07-09T21:13:16.428Z,2.10
2018-07-09T21:15:42.914Z,2.23
2018-07-09T21:18:09.184Z,2.10
2018-07-09T21:20:35.424Z,2.43
2018-07-09T21:23:01.640Z,2.20
2018-07-09T21:25:27.783Z,2.43
2018-07-09T21:27:53.948Z,2.00
2018-07-09T21:30:20.214Z,2.00
2018-07-09T21:32:46.450Z,2.17
2018-07-09T21:35:13.461Z,2.07
2018-07-09T21:37:39.861Z,1.93
2018-07-09T21:40:06.048Z,2.30
2018-07-09T21:42:32.285Z,2.00
2018-07-09T21:44:58.648Z,2.10
2018-07-09T21:47:24.946Z,2.50
2018-07-09T21:49:51.389Z,2.27
2018-07-09T21:52:17.680Z,2.10
2018-07-09T21:54:43.847Z,2.40
2018-07-09T21:57:10.106Z,2.10
2018-07-09T21:59:36.289Z,2.63
2018-07-09T22:02:02.427Z,1.97
2018-07-09T22:04:29.731Z,2.03
2018-07-09T22:06:56.035Z,2.17
2018-07-09T22:09:22.359Z,2.13
2018-07-09T22:11:48.509Z,2.60
2018-07-09T22:14:14.687Z,2.63
2018-07-09T22:16:40.825Z,1.97
2018-07-09T22:19:07.790Z,2.00
2018-07-09T22:21:34.036Z,2.23
2018-07-09T22:24:00.570Z,2.37
2018-07-09T22:26:26.827Z,2.20
2018-07-09T22:28:53.541Z,2.57
2018-07-09T22:31:21.765Z,1.93
2018-07-09T22:33:49.185Z,2.30
2018-07-09T22:36:16.757Z,2.17
2018-07-09T22:38:44.265Z,2.50
2018-07-09T22:41:11.446Z,2.27
2018-07-09T22:43:50.342Z,2.43
2018-07-09T22:46:18.851Z,2.50
2018-07-09T22:48:46.384Z,2.63
2018-07-09T22:51:13.784Z,2.50
2018-07-09T22:53:40.840Z,2.50
2018-07-09T22:56:10.117Z,2.33
2018-07-09T22:58:38.542Z,2.33
2018-07-09T23:01:05.676Z,2.50
2018-07-09T23:03:32.784Z,2.13
2018-07-09T23:05:59.956Z,2.30
2018-07-09T23:08:27.051Z,2.70
2018-07-09T23:11:30.756Z,2.50
2018-07-09T23:16:10.739Z,2.67
2018-07-09T23:19:02.215Z,2.50
2018-07-09T23:21:43.331Z,2.33
2018-07-09T23:24:09.669Z,2.20
2018-07-09T23:26:35.812Z,2.70
2018-07-09T23:29:01.970Z,2.33
2018-07-09T23:31:28.171Z,3.10
2018-07-09T23:33:54.357Z,2.30
2018-07-09T23:36:21.937Z,2.43
2018-07-09T23:38:48.385Z,2.40
2018-07-09T23:41:14.677Z,2.37
2018-07-09T23:43:40.957Z,2.20
2018-07-09T23:46:07.212Z,2.80
2018-07-09T23:48:33.365Z,2.87
2018-07-09T23:50:59.600Z,2.67
2018-07-09T23:53:25.758Z,2.87
2018-07-09T23:56:01.379Z,2.57
2018-07-09T23:59:45.280Z,3.00
